sensor_id;sensor_type;location;lat;lon;timestamp;P1;durP1;ratioP1;P2;durP2;ratioP2
61685;SDS011;47592;45.904;8.978;2023-03-12T00:00:35;16.75;;;9.02;;
61685;SDS011;47592;45.904;8.978;2023-03-12T00:03:03;17.65;;;9.50;;
61685;SDS011;47592;45.904;8.978;2023-03-12T00:05:28;18.02;;;9.77;;
61685;SDS011;47592;45.904;8.978;2023-03-12T00:07:54;16.90;;;9.10;;
61685;SDS011;47592;45.904;8.978;2023-03-12T00:10:23;21.35;;;10.27;;
61685;SDS011;47592;45.904;8.978;2023-03-12T00:12:52;20.35;;;11.30;;
61685;SDS011;47592;45.904;8.978;2023-03-12T00:15:17;22.23;;;10.85;;
61685;SDS011;47592;45.904;8.978;2023-03-12T00:17:42;19.17;;;11.55;;
61685;SDS011;47592;45.904;8.978;2023-03-12T00:20:08;21.38;;;11.27;;
61685;SDS011;47592;45.904;8.978;2023-03-12T00:22:34;21.30;;;11.57;;
61685;SDS011;47592;45.904;8.978;2023-03-12T00:25:00;21.33;;;11.57;;
61685;SDS011;47592;45.904;8.978;2023-03-12T00:27:26;17.85;;;11.02;;
61685;SDS011;47592;45.904;8.978;2023-03-12T00:29:51;18.70;;;10.75;;
61685;SDS011;47592;45.904;8.978;2023-03-12T00:32:17;21.75;;;12.48;;
61685;SDS011;47592;45.904;8.978;2023-03-12T00:34:43;23.23;;;12.35;;
61685;SDS011;47592;45.904;8.978;2023-03-12T00:37:08;18.05;;;11.80;;
61685;SDS011;47592;45.904;8.978;2023-03-12T00:39:34;22.05;;;12.05;;
61685;SDS011;47592;45.904;8.978;2023-03-12T00:42:00;19.75;;;10.40;;
61685;SDS011;47592;45.904;8.978;2023-03-12T00:44:25;23.67;;;11.43;;
61685;SDS011;47592;45.904;8.978;2023-03-12T00:46:51;22.55;;;11.27;;
61685;SDS011;47592;45.904;8.978;2023-03-12T00:49:17;20.50;;;11.02;;
61685;SDS011;47592;45.904;8.978;2023-03-12T00:51:42;21.52;;;11.88;;
61685;SDS011;47592;45.904;8.978;2023-03-12T00:54:08;20.73;;;11.57;;
61685;SDS011;47592;45.904;8.978;2023-03-12T00:56:33;20.58;;;11.45;;
61685;SDS011;47592;45.904;8.978;2023-03-12T00:58:58;19.75;;;11.75;;
61685;SDS011;47592;45.904;8.978;2023-03-12T01:01:24;23.27;;;12.35;;
61685;SDS011;47592;45.904;8.978;2023-03-12T01:03:51;23.60;;;11.70;;
61685;SDS011;47592;45.904;8.978;2023-03-12T01:06:17;22.98;;;12.98;;
61685;SDS011;47592;45.904;8.978;2023-03-12T01:08:42;23.02;;;11.55;;
61685;SDS011;47592;45.904;8.978;2023-03-12T01:11:11;26.15;;;13.13;;
61685;SDS011;47592;45.904;8.978;2023-03-12T01:13:40;22.52;;;12.38;;
61685;SDS011;47592;45.904;8.978;2023-03-12T01:16:06;24.08;;;11.70;;
61685;SDS011;47592;45.904;8.978;2023-03-12T01:18:31;21.02;;;11.55;;
61685;SDS011;47592;45.904;8.978;2023-03-12T01:20:57;22.38;;;11.60;;
61685;SDS011;47592;45.904;8.978;2023-03-12T01:23:23;21.58;;;11.55;;
61685;SDS011;47592;45.904;8.978;2023-03-12T01:25:49;23.77;;;11.80;;
61685;SDS011;47592;45.904;8.978;2023-03-12T01:28:16;19.25;;;10.27;;
61685;SDS011;47592;45.904;8.978;2023-03-12T01:30:41;18.88;;;10.30;;
61685;SDS011;47592;45.904;8.978;2023-03-12T01:33:07;20.20;;;10.25;;
61685;SDS011;47592;45.904;8.978;2023-03-12T01:35:36;18.60;;;9.73;;
61685;SDS011;47592;45.904;8.978;2023-03-12T01:38:03;20.40;;;10.63;;
61685;SDS011;47592;45.904;8.978;2023-03-12T01:40:31;20.95;;;9.80;;
61685;SDS011;47592;45.904;8.978;2023-03-12T01:42:57;18.85;;;9.70;;
61685;SDS011;47592;45.904;8.978;2023-03-12T01:48:19;14.30;;;8.60;;
61685;SDS011;47592;45.904;8.978;2023-03-12T01:50:45;16.88;;;8.45;;
61685;SDS011;47592;45.904;8.978;2023-03-12T01:53:10;18.95;;;8.63;;
61685;SDS011;47592;45.904;8.978;2023-03-12T01:55:36;17.65;;;9.07;;
61685;SDS011;47592;45.904;8.978;2023-03-12T01:58:02;19.00;;;8.73;;
61685;SDS011;47592;45.904;8.978;2023-03-12T02:00:28;17.05;;;8.05;;
61685;SDS011;47592;45.904;8.978;2023-03-12T02:02:57;18.75;;;8.02;;
61685;SDS011;47592;45.904;8.978;2023-03-12T02:07:54;17.98;;;7.22;;
61685;SDS011;47592;45.904;8.978;2023-03-12T02:10:21;17.77;;;7.60;;
61685;SDS011;47592;45.904;8.978;2023-03-12T02:12:47;14.88;;;7.25;;
61685;SDS011;47592;45.904;8.978;2023-03-12T02:15:12;13.13;;;6.57;;
61685;SDS011;47592;45.904;8.978;2023-03-12T02:17:38;20.05;;;8.05;;
61685;SDS011;47592;45.904;8.978;2023-03-12T02:22:48;16.50;;;7.35;;
61685;SDS011;47592;45.904;8.978;2023-03-12T02:28:06;15.73;;;5.97;;
61685;SDS011;47592;45.904;8.978;2023-03-12T02:30:33;15.32;;;6.20;;
61685;SDS011;47592;45.904;8.978;2023-03-12T02:33:01;16.63;;;6.55;;
61685;SDS011;47592;45.904;8.978;2023-03-12T02:35:29;12.50;;;5.53;;
61685;SDS011;47592;45.904;8.978;2023-03-12T02:37:55;13.15;;;5.35;;
61685;SDS011;47592;45.904;8.978;2023-03-12T02:40:25;13.18;;;5.68;;
61685;SDS011;47592;45.904;8.978;2023-03-12T02:42:53;16.48;;;5.95;;
61685;SDS011;47592;45.904;8.978;2023-03-12T02:45:19;18.60;;;6.55;;
61685;SDS011;47592;45.904;8.978;2023-03-12T02:47:45;16.05;;;5.65;;
61685;SDS011;47592;45.904;8.978;2023-03-12T02:50:11;15.18;;;5.60;;
61685;SDS011;47592;45.904;8.978;2023-03-12T02:52:36;12.95;;;6.93;;
61685;SDS011;47592;45.904;8.978;2023-03-12T02:55:02;13.93;;;6.03;;
61685;SDS011;47592;45.904;8.978;2023-03-12T02:57:29;15.93;;;5.60;;
61685;SDS011;47592;45.904;8.978;2023-03-12T02:59:54;17.50;;;5.40;;
61685;SDS011;47592;45.904;8.978;2023-03-12T03:02:20;13.80;;;6.00;;
61685;SDS011;47592;45.904;8.978;2023-03-12T03:04:45;13.27;;;5.00;;
61685;SDS011;47592;45.904;8.978;2023-03-12T03:07:11;12.38;;;5.35;;
61685;SDS011;47592;45.904;8.978;2023-03-12T03:09:36;13.73;;;6.00;;
61685;SDS011;47592;45.904;8.978;2023-03-12T03:12:02;12.05;;;5.50;;
61685;SDS011;47592;45.904;8.978;2023-03-12T03:14:27;14.07;;;5.28;;
61685;SDS011;47592;45.904;8.978;2023-03-12T03:16:53;10.80;;;5.90;;
61685;SDS011;47592;45.904;8.978;2023-03-12T03:19:18;15.80;;;5.63;;
61685;SDS011;47592;45.904;8.978;2023-03-12T03:21:44;13.20;;;5.40;;
61685;SDS011;47592;45.904;8.978;2023-03-12T03:24:09;16.65;;;5.65;;
61685;SDS011;47592;45.904;8.978;2023-03-12T03:26:34;14.25;;;5.32;;
61685;SDS011;47592;45.904;8.978;2023-03-12T03:29:00;15.60;;;6.18;;
61685;SDS011;47592;45.904;8.978;2023-03-12T03:31:25;12.52;;;5.38;;
61685;SDS011;47592;45.904;8.978;2023-03-12T03:33:51;15.38;;;5.85;;
61685;SDS011;47592;45.904;8.978;2023-03-12T03:36:17;14.68;;;5.30;;
61685;SDS011;47592;45.904;8.978;2023-03-12T03:38:43;11.18;;;5.13;;
61685;SDS011;47592;45.904;8.978;2023-03-12T03:41:13;12.32;;;5.93;;
61685;SDS011;47592;45.904;8.978;2023-03-12T03:43:39;15.13;;;5.75;;
61685;SDS011;47592;45.904;8.978;2023-03-12T03:46:05;11.50;;;5.00;;
61685;SDS011;47592;45.904;8.978;2023-03-12T03:48:30;12.35;;;4.80;;
61685;SDS011;47592;45.904;8.978;2023-03-12T03:50:59;11.95;;;4.75;;
61685;SDS011;47592;45.904;8.978;2023-03-12T03:53:25;14.80;;;5.07;;
61685;SDS011;47592;45.904;8.978;2023-03-12T03:55:51;11.88;;;4.55;;
61685;SDS011;47592;45.904;8.978;2023-03-12T03:58:16;15.88;;;4.18;;
61685;SDS011;47592;45.904;8.978;2023-03-12T04:00:45;13.13;;;4.22;;
61685;SDS011;47592;45.904;8.978;2023-03-12T04:03:10;12.38;;;4.45;;
61685;SDS011;47592;45.904;8.978;2023-03-12T04:05:36;12.10;;;4.40;;
61685;SDS011;47592;45.904;8.978;2023-03-12T04:08:02;9.15;;;4.38;;
61685;SDS011;47592;45.904;8.978;2023-03-12T04:10:27;10.23;;;4.22;;
61685;SDS011;47592;45.904;8.978;2023-03-12T04:12:54;10.82;;;4.07;;
61685;SDS011;47592;45.904;8.978;2023-03-12T04:15:20;10.35;;;3.92;;
61685;SDS011;47592;45.904;8.978;2023-03-12T04:17:45;9.75;;;4.30;;
61685;SDS011;47592;45.904;8.978;2023-03-12T04:20:11;11.25;;;3.92;;
61685;SDS011;47592;45.904;8.978;2023-03-12T04:22:37;11.95;;;4.28;;
61685;SDS011;47592;45.904;8.978;2023-03-12T04:25:02;11.68;;;4.25;;
61685;SDS011;47592;45.904;8.978;2023-03-12T04:27:29;12.63;;;4.03;;
61685;SDS011;47592;45.904;8.978;2023-03-12T04:29:54;11.50;;;3.97;;
61685;SDS011;47592;45.904;8.978;2023-03-12T04:32:20;9.43;;;3.33;;
61685;SDS011;47592;45.904;8.978;2023-03-12T04:34:45;12.60;;;3.72;;
61685;SDS011;47592;45.904;8.978;2023-03-12T04:37:11;10.75;;;3.75;;
61685;SDS011;47592;45.904;8.978;2023-03-12T04:39:40;8.23;;;4.07;;
61685;SDS011;47592;45.904;8.978;2023-03-12T04:42:06;15.52;;;4.65;;
61685;SDS011;47592;45.904;8.978;2023-03-12T04:44:32;13.13;;;4.80;;
61685;SDS011;47592;45.904;8.978;2023-03-12T04:46:58;13.52;;;4.22;;
61685;SDS011;47592;45.904;8.978;2023-03-12T04:49:23;11.27;;;3.90;;
61685;SDS011;47592;45.904;8.978;2023-03-12T04:51:49;16.63;;;4.30;;
61685;SDS011;47592;45.904;8.978;2023-03-12T04:54:14;12.75;;;3.95;;
61685;SDS011;47592;45.904;8.978;2023-03-12T04:56:39;11.80;;;4.10;;
61685;SDS011;47592;45.904;8.978;2023-03-12T04:59:05;13.98;;;4.50;;
61685;SDS011;47592;45.904;8.978;2023-03-12T05:01:31;8.05;;;3.60;;
61685;SDS011;47592;45.904;8.978;2023-03-12T05:03:58;11.93;;;4.47;;
61685;SDS011;47592;45.904;8.978;2023-03-12T05:06:24;11.00;;;4.07;;
61685;SDS011;47592;45.904;8.978;2023-03-12T05:08:50;11.27;;;4.18;;
61685;SDS011;47592;45.904;8.978;2023-03-12T05:11:16;13.98;;;4.15;;
61685;SDS011;47592;45.904;8.978;2023-03-12T05:13:42;12.77;;;4.15;;
61685;SDS011;47592;45.904;8.978;2023-03-12T05:16:08;10.13;;;4.28;;
61685;SDS011;47592;45.904;8.978;2023-03-12T05:18:34;13.15;;;4.53;;
61685;SDS011;47592;45.904;8.978;2023-03-12T05:21:00;10.40;;;4.07;;
61685;SDS011;47592;45.904;8.978;2023-03-12T05:23:27;9.40;;;4.15;;
61685;SDS011;47592;45.904;8.978;2023-03-12T05:25:53;9.80;;;3.67;;
61685;SDS011;47592;45.904;8.978;2023-03-12T05:28:18;11.25;;;4.78;;
61685;SDS011;47592;45.904;8.978;2023-03-12T05:30:44;9.80;;;4.10;;
61685;SDS011;47592;45.904;8.978;2023-03-12T05:33:10;9.38;;;4.43;;
61685;SDS011;47592;45.904;8.978;2023-03-12T05:35:36;10.82;;;3.70;;
61685;SDS011;47592;45.904;8.978;2023-03-12T05:38:01;8.25;;;3.40;;
61685;SDS011;47592;45.904;8.978;2023-03-12T05:40:27;11.23;;;3.92;;
61685;SDS011;47592;45.904;8.978;2023-03-12T05:42:52;10.73;;;4.53;;
61685;SDS011;47592;45.904;8.978;2023-03-12T05:45:18;10.52;;;4.35;;
61685;SDS011;47592;45.904;8.978;2023-03-12T05:47:44;9.43;;;3.88;;
61685;SDS011;47592;45.904;8.978;2023-03-12T05:50:10;9.45;;;3.55;;
61685;SDS011;47592;45.904;8.978;2023-03-12T05:52:35;14.23;;;3.78;;
61685;SDS011;47592;45.904;8.978;2023-03-12T05:55:01;9.15;;;4.13;;
61685;SDS011;47592;45.904;8.978;2023-03-12T05:57:26;10.50;;;3.95;;
61685;SDS011;47592;45.904;8.978;2023-03-12T05:59:52;12.23;;;4.13;;
61685;SDS011;47592;45.904;8.978;2023-03-12T06:02:17;11.70;;;4.03;;
61685;SDS011;47592;45.904;8.978;2023-03-12T06:04:42;11.50;;;4.05;;
61685;SDS011;47592;45.904;8.978;2023-03-12T06:07:08;11.15;;;3.90;;
61685;SDS011;47592;45.904;8.978;2023-03-12T06:09:34;9.02;;;3.55;;
61685;SDS011;47592;45.904;8.978;2023-03-12T06:11:59;10.02;;;3.70;;
61685;SDS011;47592;45.904;8.978;2023-03-12T06:14:25;12.40;;;4.20;;
61685;SDS011;47592;45.904;8.978;2023-03-12T06:16:50;9.82;;;4.28;;
61685;SDS011;47592;45.904;8.978;2023-03-12T06:19:16;14.40;;;4.45;;
61685;SDS011;47592;45.904;8.978;2023-03-12T06:21:41;12.57;;;4.25;;
61685;SDS011;47592;45.904;8.978;2023-03-12T06:24:07;12.15;;;5.00;;
61685;SDS011;47592;45.904;8.978;2023-03-12T06:26:33;9.60;;;4.03;;
61685;SDS011;47592;45.904;8.978;2023-03-12T06:28:58;9.45;;;3.35;;
61685;SDS011;47592;45.904;8.978;2023-03-12T06:31:24;9.63;;;3.33;;
61685;SDS011;47592;45.904;8.978;2023-03-12T06:33:49;12.57;;;3.38;;
61685;SDS011;47592;45.904;8.978;2023-03-12T06:36:15;11.88;;;3.80;;
61685;SDS011;47592;45.904;8.978;2023-03-12T06:38:41;9.63;;;3.53;;
61685;SDS011;47592;45.904;8.978;2023-03-12T06:41:11;8.85;;;3.50;;
61685;SDS011;47592;45.904;8.978;2023-03-12T06:43:38;7.88;;;3.63;;
61685;SDS011;47592;45.904;8.978;2023-03-12T06:46:04;10.82;;;3.75;;
61685;SDS011;47592;45.904;8.978;2023-03-12T06:48:31;10.77;;;4.03;;
61685;SDS011;47592;45.904;8.978;2023-03-12T06:50:57;9.05;;;3.60;;
61685;SDS011;47592;45.904;8.978;2023-03-12T06:53:23;8.80;;;3.70;;
61685;SDS011;47592;45.904;8.978;2023-03-12T06:55:50;8.43;;;3.72;;
61685;SDS011;47592;45.904;8.978;2023-03-12T06:58:15;9.98;;;4.07;;
61685;SDS011;47592;45.904;8.978;2023-03-12T07:00:41;11.30;;;3.75;;
61685;SDS011;47592;45.904;8.978;2023-03-12T07:03:06;10.40;;;3.88;;
61685;SDS011;47592;45.904;8.978;2023-03-12T07:05:32;13.48;;;4.15;;
61685;SDS011;47592;45.904;8.978;2023-03-12T07:07:57;9.07;;;3.50;;
61685;SDS011;47592;45.904;8.978;2023-03-12T07:10:22;12.25;;;4.28;;
61685;SDS011;47592;45.904;8.978;2023-03-12T07:12:48;11.65;;;3.95;;
61685;SDS011;47592;45.904;8.978;2023-03-12T07:15:13;11.07;;;3.85;;
61685;SDS011;47592;45.904;8.978;2023-03-12T07:17:39;9.93;;;3.83;;
61685;SDS011;47592;45.904;8.978;2023-03-12T07:20:04;11.23;;;3.90;;
61685;SDS011;47592;45.904;8.978;2023-03-12T07:22:30;11.25;;;3.70;;
61685;SDS011;47592;45.904;8.978;2023-03-12T07:24:56;10.48;;;3.83;;
61685;SDS011;47592;45.904;8.978;2023-03-12T07:27:22;16.02;;;5.40;;
61685;SDS011;47592;45.904;8.978;2023-03-12T07:29:47;9.98;;;4.15;;
61685;SDS011;47592;45.904;8.978;2023-03-12T07:32:13;11.15;;;3.95;;
61685;SDS011;47592;45.904;8.978;2023-03-12T07:34:38;10.02;;;4.57;;
61685;SDS011;47592;45.904;8.978;2023-03-12T07:37:04;10.50;;;4.30;;
61685;SDS011;47592;45.904;8.978;2023-03-12T07:39:29;13.55;;;4.65;;
61685;SDS011;47592;45.904;8.978;2023-03-12T07:41:55;11.60;;;4.28;;
61685;SDS011;47592;45.904;8.978;2023-03-12T07:44:21;9.20;;;4.07;;
61685;SDS011;47592;45.904;8.978;2023-03-12T07:46:46;11.50;;;4.20;;
61685;SDS011;47592;45.904;8.978;2023-03-12T07:49:12;9.93;;;3.95;;
61685;SDS011;47592;45.904;8.978;2023-03-12T07:51:37;11.48;;;4.22;;
61685;SDS011;47592;45.904;8.978;2023-03-12T07:54:02;13.18;;;3.65;;
61685;SDS011;47592;45.904;8.978;2023-03-12T07:56:28;9.68;;;3.88;;
61685;SDS011;47592;45.904;8.978;2023-03-12T07:58:54;10.75;;;3.58;;
61685;SDS011;47592;45.904;8.978;2023-03-12T08:01:19;10.48;;;4.10;;
61685;SDS011;47592;45.904;8.978;2023-03-12T08:03:45;10.15;;;3.65;;
61685;SDS011;47592;45.904;8.978;2023-03-12T08:06:10;9.48;;;4.20;;
61685;SDS011;47592;45.904;8.978;2023-03-12T08:08:36;9.63;;;4.57;;
61685;SDS011;47592;45.904;8.978;2023-03-12T08:11:05;8.02;;;4.40;;
61685;SDS011;47592;45.904;8.978;2023-03-12T08:13:31;10.65;;;4.55;;
61685;SDS011;47592;45.904;8.978;2023-03-12T08:15:57;9.85;;;4.22;;
61685;SDS011;47592;45.904;8.978;2023-03-12T08:18:22;11.98;;;4.32;;
61685;SDS011;47592;45.904;8.978;2023-03-12T08:20:52;11.27;;;4.47;;
61685;SDS011;47592;45.904;8.978;2023-03-12T08:25:44;12.10;;;4.15;;
61685;SDS011;47592;45.904;8.978;2023-03-12T08:28:11;8.30;;;3.80;;
61685;SDS011;47592;45.904;8.978;2023-03-12T08:30:36;10.35;;;4.50;;
61685;SDS011;47592;45.904;8.978;2023-03-12T08:33:02;9.80;;;4.60;;
61685;SDS011;47592;45.904;8.978;2023-03-12T08:35:27;9.32;;;4.38;;
61685;SDS011;47592;45.904;8.978;2023-03-12T08:37:53;7.82;;;4.30;;
61685;SDS011;47592;45.904;8.978;2023-03-12T08:40:18;7.72;;;3.90;;
61685;SDS011;47592;45.904;8.978;2023-03-12T08:42:44;14.27;;;4.70;;
61685;SDS011;47592;45.904;8.978;2023-03-12T08:45:10;10.07;;;4.68;;
61685;SDS011;47592;45.904;8.978;2023-03-12T08:47:36;9.20;;;4.88;;
61685;SDS011;47592;45.904;8.978;2023-03-12T08:50:05;12.50;;;5.47;;
61685;SDS011;47592;45.904;8.978;2023-03-12T08:52:32;10.50;;;5.25;;
61685;SDS011;47592;45.904;8.978;2023-03-12T08:54:57;8.00;;;4.55;;
61685;SDS011;47592;45.904;8.978;2023-03-12T08:57:23;9.35;;;3.95;;
61685;SDS011;47592;45.904;8.978;2023-03-12T08:59:48;10.77;;;4.35;;
61685;SDS011;47592;45.904;8.978;2023-03-12T09:02:13;10.02;;;4.18;;
61685;SDS011;47592;45.904;8.978;2023-03-12T09:04:39;14.07;;;6.95;;
61685;SDS011;47592;45.904;8.978;2023-03-12T09:07:04;21.13;;;10.15;;
61685;SDS011;47592;45.904;8.978;2023-03-12T09:09:30;15.77;;;5.95;;
61685;SDS011;47592;45.904;8.978;2023-03-12T09:11:55;9.82;;;4.85;;
61685;SDS011;47592;45.904;8.978;2023-03-12T09:14:21;11.13;;;4.65;;
61685;SDS011;47592;45.904;8.978;2023-03-12T09:16:47;12.30;;;4.03;;
61685;SDS011;47592;45.904;8.978;2023-03-12T09:19:12;6.97;;;3.20;;
61685;SDS011;47592;45.904;8.978;2023-03-12T09:21:38;7.38;;;3.45;;
61685;SDS011;47592;45.904;8.978;2023-03-12T09:24:04;8.02;;;3.22;;
61685;SDS011;47592;45.904;8.978;2023-03-12T09:26:30;7.03;;;2.70;;
61685;SDS011;47592;45.904;8.978;2023-03-12T09:28:56;6.78;;;2.55;;
61685;SDS011;47592;45.904;8.978;2023-03-12T09:31:22;5.78;;;2.70;;
61685;SDS011;47592;45.904;8.978;2023-03-12T09:33:48;14.43;;;3.65;;
61685;SDS011;47592;45.904;8.978;2023-03-12T09:36:31;7.50;;;3.40;;
61685;SDS011;47592;45.904;8.978;2023-03-12T09:38:57;7.05;;;2.75;;
61685;SDS011;47592;45.904;8.978;2023-03-12T09:41:24;6.00;;;2.10;;
61685;SDS011;47592;45.904;8.978;2023-03-12T09:46:24;5.00;;;2.30;;
61685;SDS011;47592;45.904;8.978;2023-03-12T09:48:53;6.53;;;2.20;;
61685;SDS011;47592;45.904;8.978;2023-03-12T09:51:23;8.00;;;2.60;;
61685;SDS011;47592;45.904;8.978;2023-03-12T09:54:01;5.07;;;2.20;;
61685;SDS011;47592;45.904;8.978;2023-03-12T09:56:28;6.72;;;2.63;;
61685;SDS011;47592;45.904;8.978;2023-03-12T09:58:53;6.35;;;2.50;;
61685;SDS011;47592;45.904;8.978;2023-03-12T10:01:24;5.88;;;2.58;;
61685;SDS011;47592;45.904;8.978;2023-03-12T10:04:03;6.30;;;2.42;;
61685;SDS011;47592;45.904;8.978;2023-03-12T10:06:41;7.93;;;2.47;;
61685;SDS011;47592;45.904;8.978;2023-03-12T10:20:27;6.38;;;2.45;;
61685;SDS011;47592;45.904;8.978;2023-03-12T10:26:21;5.32;;;2.20;;
61685;SDS011;47592;45.904;8.978;2023-03-12T10:31:50;6.95;;;2.15;;
61685;SDS011;47592;45.904;8.978;2023-03-12T10:34:24;6.40;;;2.55;;
61685;SDS011;47592;45.904;8.978;2023-03-12T10:37:08;6.93;;;2.42;;
61685;SDS011;47592;45.904;8.978;2023-03-12T10:39:39;4.88;;;2.15;;
61685;SDS011;47592;45.904;8.978;2023-03-12T10:42:11;8.57;;;2.35;;
61685;SDS011;47592;45.904;8.978;2023-03-12T10:44:39;7.00;;;2.50;;
61685;SDS011;47592;45.904;8.978;2023-03-12T10:49:51;4.95;;;2.10;;
61685;SDS011;47592;45.904;8.978;2023-03-12T10:52:21;5.20;;;2.25;;
61685;SDS011;47592;45.904;8.978;2023-03-12T10:54:47;5.95;;;2.50;;
61685;SDS011;47592;45.904;8.978;2023-03-12T10:57:15;6.95;;;2.53;;
61685;SDS011;47592;45.904;8.978;2023-03-12T10:59:42;6.45;;;2.50;;
61685;SDS011;47592;45.904;8.978;2023-03-12T11:05:06;6.03;;;2.10;;
61685;SDS011;47592;45.904;8.978;2023-03-12T11:07:43;5.43;;;2.20;;
61685;SDS011;47592;45.904;8.978;2023-03-12T11:12:35;4.97;;;2.20;;
61685;SDS011;47592;45.904;8.978;2023-03-12T11:16:02;5.50;;;2.15;;
61685;SDS011;47592;45.904;8.978;2023-03-12T11:20:46;6.57;;;2.10;;
61685;SDS011;47592;45.904;8.978;2023-03-12T11:23:16;5.10;;;2.08;;
61685;SDS011;47592;45.904;8.978;2023-03-12T11:25:50;5.30;;;2.30;;
61685;SDS011;47592;45.904;8.978;2023-03-12T11:28:23;6.35;;;2.55;;
61685;SDS011;47592;45.904;8.978;2023-03-12T11:30:51;6.30;;;2.42;;
61685;SDS011;47592;45.904;8.978;2023-03-12T11:33:17;6.53;;;2.35;;
61685;SDS011;47592;45.904;8.978;2023-03-12T11:38:30;5.63;;;2.40;;
61685;SDS011;47592;45.904;8.978;2023-03-12T11:41:04;5.82;;;2.33;;
61685;SDS011;47592;45.904;8.978;2023-03-12T11:51:36;5.30;;;2.30;;
61685;SDS011;47592;45.904;8.978;2023-03-12T11:56:50;5.72;;;2.25;;
61685;SDS011;47592;45.904;8.978;2023-03-12T12:00:20;6.00;;;2.40;;
61685;SDS011;47592;45.904;8.978;2023-03-12T12:07:37;4.95;;;2.40;;
61685;SDS011;47592;45.904;8.978;2023-03-12T12:12:35;6.10;;;2.45;;
61685;SDS011;47592;45.904;8.978;2023-03-12T12:31:17;8.32;;;2.50;;
61685;SDS011;47592;45.904;8.978;2023-03-12T12:34:05;7.65;;;2.70;;
61685;SDS011;47592;45.904;8.978;2023-03-12T12:36:40;6.13;;;2.60;;
61685;SDS011;47592;45.904;8.978;2023-03-12T12:39:14;6.32;;;2.92;;
61685;SDS011;47592;45.904;8.978;2023-03-12T12:41:46;5.50;;;2.70;;
61685;SDS011;47592;45.904;8.978;2023-03-12T12:44:16;5.60;;;2.42;;
61685;SDS011;47592;45.904;8.978;2023-03-12T12:46:48;6.00;;;3.03;;
61685;SDS011;47592;45.904;8.978;2023-03-12T12:49:21;6.18;;;2.58;;
61685;SDS011;47592;45.904;8.978;2023-03-12T12:51:55;6.63;;;2.78;;
61685;SDS011;47592;45.904;8.978;2023-03-12T13:02:47;7.00;;;2.83;;
61685;SDS011;47592;45.904;8.978;2023-03-12T13:05:17;6.82;;;2.55;;
61685;SDS011;47592;45.904;8.978;2023-03-12T13:07:46;6.35;;;2.50;;
61685;SDS011;47592;45.904;8.978;2023-03-12T13:12:56;6.22;;;2.60;;
61685;SDS011;47592;45.904;8.978;2023-03-12T13:20:18;5.65;;;2.50;;
61685;SDS011;47592;45.904;8.978;2023-03-12T13:28:35;6.40;;;2.50;;
61685;SDS011;47592;45.904;8.978;2023-03-12T13:33:55;7.72;;;2.70;;
61685;SDS011;47592;45.904;8.978;2023-03-12T13:36:42;6.22;;;2.60;;
61685;SDS011;47592;45.904;8.978;2023-03-12T13:49:45;6.95;;;2.55;;
61685;SDS011;47592;45.904;8.978;2023-03-12T13:52:18;5.88;;;2.45;;
61685;SDS011;47592;45.904;8.978;2023-03-12T13:54:45;6.10;;;2.70;;
61685;SDS011;47592;45.904;8.978;2023-03-12T14:00:04;7.22;;;2.80;;
61685;SDS011;47592;45.904;8.978;2023-03-12T14:02:37;12.88;;;5.03;;
61685;SDS011;47592;45.904;8.978;2023-03-12T14:05:09;7.75;;;3.40;;
61685;SDS011;47592;45.904;8.978;2023-03-12T14:12:57;7.25;;;3.22;;
61685;SDS011;47592;45.904;8.978;2023-03-12T14:15:35;6.75;;;3.22;;
61685;SDS011;47592;45.904;8.978;2023-03-12T14:18:20;7.00;;;2.88;;
61685;SDS011;47592;45.904;8.978;2023-03-12T14:20:51;6.53;;;2.65;;
61685;SDS011;47592;45.904;8.978;2023-03-12T14:23:19;6.72;;;2.50;;
61685;SDS011;47592;45.904;8.978;2023-03-12T14:25:45;6.28;;;2.47;;
61685;SDS011;47592;45.904;8.978;2023-03-12T14:28:14;7.07;;;2.53;;
61685;SDS011;47592;45.904;8.978;2023-03-12T14:33:16;5.40;;;2.47;;
61685;SDS011;47592;45.904;8.978;2023-03-12T14:35:43;6.20;;;2.92;;
61685;SDS011;47592;45.904;8.978;2023-03-12T14:38:13;6.57;;;2.90;;
61685;SDS011;47592;45.904;8.978;2023-03-12T14:43:38;4.97;;;2.63;;
61685;SDS011;47592;45.904;8.978;2023-03-12T14:46:19;7.55;;;2.60;;
61685;SDS011;47592;45.904;8.978;2023-03-12T14:48:50;6.47;;;2.88;;
61685;SDS011;47592;45.904;8.978;2023-03-12T14:51:21;6.20;;;3.03;;
61685;SDS011;47592;45.904;8.978;2023-03-12T14:53:48;6.18;;;2.72;;
61685;SDS011;47592;45.904;8.978;2023-03-12T14:56:30;6.00;;;2.72;;
61685;SDS011;47592;45.904;8.978;2023-03-12T14:58:59;6.50;;;2.58;;
61685;SDS011;47592;45.904;8.978;2023-03-12T15:06:29;7.43;;;2.85;;
61685;SDS011;47592;45.904;8.978;2023-03-12T15:08:57;5.53;;;2.80;;
61685;SDS011;47592;45.904;8.978;2023-03-12T15:11:24;7.18;;;2.90;;
61685;SDS011;47592;45.904;8.978;2023-03-12T15:13:52;7.75;;;2.97;;
61685;SDS011;47592;45.904;8.978;2023-03-12T15:16:19;7.35;;;2.67;;
61685;SDS011;47592;45.904;8.978;2023-03-12T15:18:45;6.40;;;2.67;;
61685;SDS011;47592;45.904;8.978;2023-03-12T15:21:13;6.93;;;3.00;;
61685;SDS011;47592;45.904;8.978;2023-03-12T15:23:39;8.32;;;2.83;;
61685;SDS011;47592;45.904;8.978;2023-03-12T15:31:43;6.82;;;3.03;;
61685;SDS011;47592;45.904;8.978;2023-03-12T15:34:10;7.63;;;2.92;;
61685;SDS011;47592;45.904;8.978;2023-03-12T15:36:37;6.38;;;2.90;;
61685;SDS011;47592;45.904;8.978;2023-03-12T15:41:53;8.10;;;3.05;;
61685;SDS011;47592;45.904;8.978;2023-03-12T15:44:27;7.03;;;2.92;;
61685;SDS011;47592;45.904;8.978;2023-03-12T15:47:00;9.77;;;3.30;;
61685;SDS011;47592;45.904;8.978;2023-03-12T15:49:29;7.82;;;3.10;;
61685;SDS011;47592;45.904;8.978;2023-03-12T15:52:03;8.32;;;3.13;;
61685;SDS011;47592;45.904;8.978;2023-03-12T15:54:31;8.02;;;3.33;;
61685;SDS011;47592;45.904;8.978;2023-03-12T15:57:10;7.70;;;2.95;;
61685;SDS011;47592;45.904;8.978;2023-03-12T16:02:37;7.47;;;3.08;;
61685;SDS011;47592;45.904;8.978;2023-03-12T16:05:03;7.22;;;3.33;;
61685;SDS011;47592;45.904;8.978;2023-03-12T16:07:29;7.85;;;3.17;;
61685;SDS011;47592;45.904;8.978;2023-03-12T16:09:54;8.00;;;3.50;;
61685;SDS011;47592;45.904;8.978;2023-03-12T16:12:20;7.90;;;3.33;;
61685;SDS011;47592;45.904;8.978;2023-03-12T16:14:45;7.97;;;3.42;;
61685;SDS011;47592;45.904;8.978;2023-03-12T16:17:13;7.45;;;3.00;;
61685;SDS011;47592;45.904;8.978;2023-03-12T16:19:41;7.55;;;3.28;;
61685;SDS011;47592;45.904;8.978;2023-03-12T16:22:07;7.00;;;3.58;;
61685;SDS011;47592;45.904;8.978;2023-03-12T16:24:32;6.78;;;3.20;;
61685;SDS011;47592;45.904;8.978;2023-03-12T16:26:58;7.57;;;3.70;;
61685;SDS011;47592;45.904;8.978;2023-03-12T16:29:31;8.23;;;3.53;;
61685;SDS011;47592;45.904;8.978;2023-03-12T16:31:58;10.75;;;3.33;;
61685;SDS011;47592;45.904;8.978;2023-03-12T16:34:23;8.25;;;3.83;;
61685;SDS011;47592;45.904;8.978;2023-03-12T16:36:49;7.85;;;3.40;;
61685;SDS011;47592;45.904;8.978;2023-03-12T16:39:15;11.52;;;3.63;;
61685;SDS011;47592;45.904;8.978;2023-03-12T16:41:40;9.65;;;3.78;;
61685;SDS011;47592;45.904;8.978;2023-03-12T16:44:06;7.63;;;3.50;;
61685;SDS011;47592;45.904;8.978;2023-03-12T16:46:32;9.25;;;3.72;;
61685;SDS011;47592;45.904;8.978;2023-03-12T16:48:58;9.25;;;4.07;;
61685;SDS011;47592;45.904;8.978;2023-03-12T16:51:24;8.60;;;3.45;;
61685;SDS011;47592;45.904;8.978;2023-03-12T16:53:52;10.23;;;3.75;;
61685;SDS011;47592;45.904;8.978;2023-03-12T16:56:19;8.63;;;3.65;;
61685;SDS011;47592;45.904;8.978;2023-03-12T16:58:46;10.23;;;3.72;;
61685;SDS011;47592;45.904;8.978;2023-03-12T17:01:14;8.23;;;3.80;;
61685;SDS011;47592;45.904;8.978;2023-03-12T17:03:42;9.30;;;3.30;;
61685;SDS011;47592;45.904;8.978;2023-03-12T17:06:17;8.45;;;3.22;;
61685;SDS011;47592;45.904;8.978;2023-03-12T17:08:44;8.57;;;3.17;;